AirNav   Airventure
 
 1035 users online  

1GE5 Flying D Airport
Concord, Georgia, USA


FAA INFORMATION EFFECTIVE 20 JULY 2017

Location

FAA Identifier: 1GE5
Lat/Long: 33-06-04.4500N / 084-23-36.7200W
33-06.074167N / 084-23.612000W
33.1012361 / -84.3935333
(estimated)
Elevation: 838 ft. / 255 m (estimated)
Variation: 03W (1995)
From city: 3 miles NE of CONCORD, GA
Time zone: UTC -4 (UTC -5 during Standard Time)
Zip code: 30206

Airport Operations

Airport use: Private use. Permission required prior to landing
Activation date: 07/1999
Control tower: no
ARTCC: ATLANTA CENTER
FSS: MACON FLIGHT SERVICE STATION
Attendance: UNATNDD
Wind indicator: yes
Segmented circle: no

Airport Communications

WX AWOS-3 at 6A2 (10 nm NE): 119.750 (770-227-3934)
WX AWOS-3 at OPN (11 nm SE): 133.975 (706-646-4123)
WX AWOS-3 at HMP (18 nm N): 124.825 (770-707-1719)
WX ASOS at FFC (18 nm NW): 118.525 (770-487-1610)

Nearby radio navigation aids

VOR radial/distance  VOR name  Freq  Var
ATLr181/31.7ATLANTA VORTAC116.9005W

 
NDB name  Hdg/Dist  Freq  Var  ID
PECAT164/12.931605WFFC ..-. ..-. -.-.
COWETA COUNTY123/18.623403WEQQ . --.- --.-
PINE MOUNTAIN060/28.727203WPIM .--. .. --

Airport Services

Runway Information

Runway 18/36

Dimensions: 1000 x 40 ft. / 305 x 12 m
Surface: turf, in good condition
RUNWAY 18  RUNWAY 36
Traffic pattern: leftright

Airport Ownership and Management from official FAA records

Ownership: Privately-owned
Owner: DAVID NEYHART
P.O. BOX 996
ZEBULON, GA 30295
Phone (770) 567-9928
Manager: DAVID NEYHART
P.O. BOX 996
ZEBULON, GA 30295
Phone (770) 567-9928

Airport Operational Statistics

Aircraft based on the field: 2
Single engine airplanes: 1
Ultralights: 1
    

Instrument Procedures

There are no published instrument procedures at 1GE5.

Some nearby airports with instrument procedures:

6A2 - Griffin-Spalding County Airport (10 nm NE)
KOPN - Thomaston-Upson County Airport (11 nm SE)
KHMP - Henry County Airport (18 nm N)
KFFC - Atlanta Regional Airport-Falcon Field (18 nm NW)
KCCO - Newnan Coweta County Airport (23 nm NW)
 
Loc | Ops | Rwys | IFR | FBO | Links
Com | Nav | Svcs | Stats | Notes


 
Aerial photo
No photo
 
Airport distance calculator
Flying to Flying D Airport? Find the distance to fly.

From to 1GE5

Sunrise and sunset
Times for 25-Jul-2017
 Local
(UTC-4)
 Zulu
(UTC)
Morning civil twilight06:1910:19
Sunrise06:4710:47
Sunset20:4100:41
Evening civil twilight21:0901:09

Current date and time
Zulu (UTC)  26-Jul-2017 01:04:00
Local (UTC-4)  25-Jul-2017 21:04:00
 
METAR
K6A2 
10nm NE 
260055Z AUTO 00000KT 10SM SCT100 27/26 A3012 RMK AO2
KOPN 
11nm SE 
260055Z AUTO 00000KT 10SM BKN120 26/24 A3012 RMK AO2 LTG DSNT SE
KFFC 
17nm NW 
260053Z AUTO 00000KT 9SM CLR 25/24 A3010 RMK AO2 SLP187 T02500239
KHMP 
18nm N 
260055Z AUTO 00000KT 10SM CLR 25/23 A3011 RMK AO2 T02520231
TAF
KATL 
32nm N 
252202Z 2522/2624 24003KT P6SM SHRA FEW035 SCT045 FM252230 28005KT P6SM VCSH FEW035 SCT060 FM252300 29007KT P6SM SCT040 BKN250 FM260600 31005KT P6SM SCT250 FM261200 03005KT P6SM SCT250 FM261600 06006KT P6SM BKN250 PROB30 2620/2623 P6SM TS BKN050CB
NOTAMs
Click for the latest NOTAMs
NOTAMs are issued by the DoD/FAA and will open in a separate window not controlled by AirNav.

 

 
 

Would you like to see your business listed on this page?

 If your business provides an interesting product or service to pilots, flight crews, aircraft, or users of the Flying D Airport, you should consider listing it here.  To start the listing process, click on the button below
 
Add a business
 

Other Pages about Flying D Airport

Update a link
 
Copyright © AirNav, LLC. All rights reserved. Privacy Policy  Contact